sensor_id;sensor_type;location;lat;lon;timestamp;P1;durP1;ratioP1;P2;durP2;ratioP2
54853;SDS011;40747;49.480;8.658;2022-12-17T00:01:16;2.58;;;1.90;;
54853;SDS011;40747;49.480;8.658;2022-12-17T00:03:59;2.97;;;1.80;;
54853;SDS011;40747;49.480;8.658;2022-12-17T00:06:43;2.50;;;2.30;;
54853;SDS011;40747;49.480;8.658;2022-12-17T00:09:27;1.17;;;1.00;;
54853;SDS011;40747;49.480;8.658;2022-12-17T00:12:11;5.45;;;2.95;;
54853;SDS011;40747;49.480;8.658;2022-12-17T00:14:55;4.15;;;3.83;;
54853;SDS011;40747;49.480;8.658;2022-12-17T00:17:39;2.35;;;0.90;;
54853;SDS011;40747;49.480;8.658;2022-12-17T00:20:23;2.42;;;1.23;;
54853;SDS011;40747;49.480;8.658;2022-12-17T00:23:07;0.98;;;0.95;;
54853;SDS011;40747;49.480;8.658;2022-12-17T00:25:52;2.78;;;1.80;;
54853;SDS011;40747;49.480;8.658;2022-12-17T00:28:37;1.33;;;1.23;;
54853;SDS011;40747;49.480;8.658;2022-12-17T00:31:22;3.40;;;1.77;;
54853;SDS011;40747;49.480;8.658;2022-12-17T00:34:08;2.80;;;2.60;;
54853;SDS011;40747;49.480;8.658;2022-12-17T00:36:52;1.80;;;0.95;;
54853;SDS011;40747;49.480;8.658;2022-12-17T00:39:36;1.25;;;1.20;;
54853;SDS011;40747;49.480;8.658;2022-12-17T00:42:20;3.40;;;1.20;;
54853;SDS011;40747;49.480;8.658;2022-12-17T00:45:08;5.20;;;2.38;;
54853;SDS011;40747;49.480;8.658;2022-12-17T00:47:52;2.92;;;1.85;;
54853;SDS011;40747;49.480;8.658;2022-12-17T00:50:36;2.35;;;2.20;;
54853;SDS011;40747;49.480;8.658;2022-12-17T00:53:19;1.52;;;1.42;;
54853;SDS011;40747;49.480;8.658;2022-12-17T00:56:03;5.05;;;2.33;;
54853;SDS011;40747;49.480;8.658;2022-12-17T00:58:48;1.98;;;1.88;;
54853;SDS011;40747;49.480;8.658;2022-12-17T01:01:32;0.57;;;0.52;;
54853;SDS011;40747;49.480;8.658;2022-12-17T01:04:16;0.95;;;0.95;;
54853;SDS011;40747;49.480;8.658;2022-12-17T01:07:00;1.90;;;1.20;;
54853;SDS011;40747;49.480;8.658;2022-12-17T01:09:43;3.30;;;0.73;;
54853;SDS011;40747;49.480;8.658;2022-12-17T01:12:27;0.95;;;0.90;;
54853;SDS011;40747;49.480;8.658;2022-12-17T01:15:11;1.33;;;1.02;;
54853;SDS011;40747;49.480;8.658;2022-12-17T01:17:55;1.50;;;1.23;;
54853;SDS011;40747;49.480;8.658;2022-12-17T01:20:39;2.38;;;2.20;;
54853;SDS011;40747;49.480;8.658;2022-12-17T01:23:23;2.15;;;1.42;;
54853;SDS011;40747;49.480;8.658;2022-12-17T01:26:18;1.58;;;1.45;;
54853;SDS011;40747;49.480;8.658;2022-12-17T01:29:01;10.05;;;3.25;;
54853;SDS011;40747;49.480;8.658;2022-12-17T01:31:45;1.48;;;1.38;;
54853;SDS011;40747;49.480;8.658;2022-12-17T01:34:29;2.22;;;2.08;;
54853;SDS011;40747;49.480;8.658;2022-12-17T01:37:13;3.55;;;2.38;;
54853;SDS011;40747;49.480;8.658;2022-12-17T01:39:57;13.13;;;2.35;;
54853;SDS011;40747;49.480;8.658;2022-12-17T01:42:42;3.42;;;2.30;;
54853;SDS011;40747;49.480;8.658;2022-12-17T01:45:27;4.85;;;3.35;;
54853;SDS011;40747;49.480;8.658;2022-12-17T01:48:19;2.70;;;2.00;;
54853;SDS011;40747;49.480;8.658;2022-12-17T01:51:10;2.67;;;2.47;;
54853;SDS011;40747;49.480;8.658;2022-12-17T01:53:56;5.82;;;2.92;;
54853;SDS011;40747;49.480;8.658;2022-12-17T01:56:41;3.67;;;3.30;;
54853;SDS011;40747;49.480;8.658;2022-12-17T01:59:35;4.28;;;3.13;;
54853;SDS011;40747;49.480;8.658;2022-12-17T02:02:25;1.65;;;1.55;;
54853;SDS011;40747;49.480;8.658;2022-12-17T02:05:09;0.80;;;0.80;;
54853;SDS011;40747;49.480;8.658;2022-12-17T02:08:05;4.15;;;1.95;;
54853;SDS011;40747;49.480;8.658;2022-12-17T02:14:26;0.35;;;0.35;;
54853;SDS011;40747;49.480;8.658;2022-12-17T02:17:36;1.30;;;1.20;;
54853;SDS011;40747;49.480;8.658;2022-12-17T02:20:29;1.25;;;1.15;;
54853;SDS011;40747;49.480;8.658;2022-12-17T02:26:39;3.45;;;1.17;;
54853;SDS011;40747;49.480;8.658;2022-12-17T02:29:26;1.27;;;1.10;;
54853;SDS011;40747;49.480;8.658;2022-12-17T02:32:13;1.42;;;1.23;;
54853;SDS011;40747;49.480;8.658;2022-12-17T02:34:59;2.92;;;1.60;;
54853;SDS011;40747;49.480;8.658;2022-12-17T02:37:46;1.05;;;1.05;;
54853;SDS011;40747;49.480;8.658;2022-12-17T02:40:30;0.40;;;0.40;;
54853;SDS011;40747;49.480;8.658;2022-12-17T02:43:16;1.17;;;0.88;;
54853;SDS011;40747;49.480;8.658;2022-12-17T02:46:02;0.68;;;0.68;;
54853;SDS011;40747;49.480;8.658;2022-12-17T02:48:47;0.52;;;0.52;;
54853;SDS011;40747;49.480;8.658;2022-12-17T02:51:31;2.42;;;2.00;;
54853;SDS011;40747;49.480;8.658;2022-12-17T02:54:16;2.35;;;2.25;;
54853;SDS011;40747;49.480;8.658;2022-12-17T02:57:00;3.45;;;2.17;;
54853;SDS011;40747;49.480;8.658;2022-12-17T02:59:44;2.60;;;2.38;;
54853;SDS011;40747;49.480;8.658;2022-12-17T03:02:28;3.65;;;1.77;;
54853;SDS011;40747;49.480;8.658;2022-12-17T03:05:12;3.72;;;2.22;;
54853;SDS011;40747;49.480;8.658;2022-12-17T03:07:55;0.77;;;0.77;;
54853;SDS011;40747;49.480;8.658;2022-12-17T03:10:39;3.45;;;3.15;;
54853;SDS011;40747;49.480;8.658;2022-12-17T03:13:24;5.57;;;2.58;;
54853;SDS011;40747;49.480;8.658;2022-12-17T03:16:10;1.75;;;1.65;;
54853;SDS011;40747;49.480;8.658;2022-12-17T03:18:56;6.18;;;2.75;;
54853;SDS011;40747;49.480;8.658;2022-12-17T03:21:48;3.85;;;3.10;;
54853;SDS011;40747;49.480;8.658;2022-12-17T03:24:31;2.88;;;2.67;;
54853;SDS011;40747;49.480;8.658;2022-12-17T03:27:15;2.42;;;2.30;;
54853;SDS011;40747;49.480;8.658;2022-12-17T03:29:59;6.13;;;2.13;;
54853;SDS011;40747;49.480;8.658;2022-12-17T03:32:43;3.17;;;2.97;;
54853;SDS011;40747;49.480;8.658;2022-12-17T03:35:27;3.28;;;1.52;;
54853;SDS011;40747;49.480;8.658;2022-12-17T03:38:11;1.38;;;1.27;;
54853;SDS011;40747;49.480;8.658;2022-12-17T03:40:56;2.17;;;1.77;;
54853;SDS011;40747;49.480;8.658;2022-12-17T03:43:40;2.25;;;2.13;;
54853;SDS011;40747;49.480;8.658;2022-12-17T03:46:24;1.75;;;1.65;;
54853;SDS011;40747;49.480;8.658;2022-12-17T03:49:08;11.07;;;2.85;;
54853;SDS011;40747;49.480;8.658;2022-12-17T03:51:52;0.98;;;0.98;;
54853;SDS011;40747;49.480;8.658;2022-12-17T03:54:37;3.13;;;1.80;;
54853;SDS011;40747;49.480;8.658;2022-12-17T03:57:20;1.08;;;1.08;;
54853;SDS011;40747;49.480;8.658;2022-12-17T04:00:05;2.70;;;0.60;;
54853;SDS011;40747;49.480;8.658;2022-12-17T04:02:49;1.65;;;1.38;;
54853;SDS011;40747;49.480;8.658;2022-12-17T04:05:33;0.15;;;0.15;;
54853;SDS011;40747;49.480;8.658;2022-12-17T04:08:16;1.38;;;0.40;;
54853;SDS011;40747;49.480;8.658;2022-12-17T04:11:00;2.00;;;0.65;;
54853;SDS011;40747;49.480;8.658;2022-12-17T04:13:44;0.80;;;0.80;;
54853;SDS011;40747;49.480;8.658;2022-12-17T04:16:28;0.60;;;0.60;;
54853;SDS011;40747;49.480;8.658;2022-12-17T04:19:12;1.60;;;1.50;;
54853;SDS011;40747;49.480;8.658;2022-12-17T04:21:56;1.00;;;1.00;;
54853;SDS011;40747;49.480;8.658;2022-12-17T04:24:40;0.68;;;0.68;;
54853;SDS011;40747;49.480;8.658;2022-12-17T04:27:24;0.40;;;0.40;;
54853;SDS011;40747;49.480;8.658;2022-12-17T04:30:08;1.33;;;1.25;;
54853;SDS011;40747;49.480;8.658;2022-12-17T04:32:52;0.60;;;0.60;;
54853;SDS011;40747;49.480;8.658;2022-12-17T04:35:36;0.22;;;0.22;;
54853;SDS011;40747;49.480;8.658;2022-12-17T04:38:20;1.23;;;1.23;;
54853;SDS011;40747;49.480;8.658;2022-12-17T04:41:04;0.93;;;0.85;;
54853;SDS011;40747;49.480;8.658;2022-12-17T04:43:48;1.67;;;1.58;;
54853;SDS011;40747;49.480;8.658;2022-12-17T04:46:32;0.30;;;0.30;;
54853;SDS011;40747;49.480;8.658;2022-12-17T04:49:16;8.43;;;1.45;;
54853;SDS011;40747;49.480;8.658;2022-12-17T04:52:00;1.10;;;0.52;;
54853;SDS011;40747;49.480;8.658;2022-12-17T04:54:44;0.32;;;0.32;;
54853;SDS011;40747;49.480;8.658;2022-12-17T04:57:28;0.75;;;0.75;;
54853;SDS011;40747;49.480;8.658;2022-12-17T05:00:12;1.90;;;1.80;;
54853;SDS011;40747;49.480;8.658;2022-12-17T05:03:02;2.17;;;1.55;;
54853;SDS011;40747;49.480;8.658;2022-12-17T05:05:47;2.08;;;1.98;;
54853;SDS011;40747;49.480;8.658;2022-12-17T05:08:31;1.77;;;1.52;;
54853;SDS011;40747;49.480;8.658;2022-12-17T05:11:15;3.97;;;3.67;;
54853;SDS011;40747;49.480;8.658;2022-12-17T05:13:59;0.75;;;0.75;;
54853;SDS011;40747;49.480;8.658;2022-12-17T05:16:43;3.95;;;2.90;;
54853;SDS011;40747;49.480;8.658;2022-12-17T05:19:26;2.30;;;2.20;;
54853;SDS011;40747;49.480;8.658;2022-12-17T05:22:10;10.93;;;3.97;;
54853;SDS011;40747;49.480;8.658;2022-12-17T05:24:59;4.85;;;3.70;;
54853;SDS011;40747;49.480;8.658;2022-12-17T05:27:42;2.70;;;2.45;;
54853;SDS011;40747;49.480;8.658;2022-12-17T05:30:29;3.03;;;1.63;;
54853;SDS011;40747;49.480;8.658;2022-12-17T05:33:13;1.42;;;1.33;;
54853;SDS011;40747;49.480;8.658;2022-12-17T05:36:00;0.40;;;0.40;;
54853;SDS011;40747;49.480;8.658;2022-12-17T05:38:45;0.63;;;0.63;;
54853;SDS011;40747;49.480;8.658;2022-12-17T05:41:30;0.90;;;0.90;;
54853;SDS011;40747;49.480;8.658;2022-12-17T05:44:14;0.80;;;0.80;;
54853;SDS011;40747;49.480;8.658;2022-12-17T05:46:58;0.90;;;0.90;;
54853;SDS011;40747;49.480;8.658;2022-12-17T05:49:42;1.13;;;0.95;;
54853;SDS011;40747;49.480;8.658;2022-12-17T05:52:26;5.55;;;2.28;;
54853;SDS011;40747;49.480;8.658;2022-12-17T05:55:10;0.25;;;0.25;;
54853;SDS011;40747;49.480;8.658;2022-12-17T05:58:04;3.53;;;1.77;;
54853;SDS011;40747;49.480;8.658;2022-12-17T06:00:54;1.67;;;1.55;;
54853;SDS011;40747;49.480;8.658;2022-12-17T06:03:42;5.35;;;3.22;;
54853;SDS011;40747;49.480;8.658;2022-12-17T06:06:26;3.90;;;1.83;;
54853;SDS011;40747;49.480;8.658;2022-12-17T06:09:10;0.60;;;0.60;;
54853;SDS011;40747;49.480;8.658;2022-12-17T06:11:54;6.82;;;1.10;;
54853;SDS011;40747;49.480;8.658;2022-12-17T06:14:38;0.77;;;0.77;;
54853;SDS011;40747;49.480;8.658;2022-12-17T06:17:21;0.85;;;0.85;;
54853;SDS011;40747;49.480;8.658;2022-12-17T06:20:06;0.68;;;0.57;;
54853;SDS011;40747;49.480;8.658;2022-12-17T06:23:03;2.03;;;1.67;;
54853;SDS011;40747;49.480;8.658;2022-12-17T06:25:51;3.38;;;3.08;;
54853;SDS011;40747;49.480;8.658;2022-12-17T06:28:35;3.08;;;2.88;;
54853;SDS011;40747;49.480;8.658;2022-12-17T06:31:19;2.33;;;2.22;;
54853;SDS011;40747;49.480;8.658;2022-12-17T06:34:03;8.15;;;4.28;;
54853;SDS011;40747;49.480;8.658;2022-12-17T06:36:47;4.10;;;3.58;;
54853;SDS011;40747;49.480;8.658;2022-12-17T06:39:31;7.72;;;4.00;;
54853;SDS011;40747;49.480;8.658;2022-12-17T06:42:15;2.55;;;2.22;;
54853;SDS011;40747;49.480;8.658;2022-12-17T06:44:59;5.57;;;4.15;;
54853;SDS011;40747;49.480;8.658;2022-12-17T06:47:43;10.02;;;3.75;;
54853;SDS011;40747;49.480;8.658;2022-12-17T06:50:27;3.22;;;3.05;;
54853;SDS011;40747;49.480;8.658;2022-12-17T06:53:11;4.97;;;3.47;;
54853;SDS011;40747;49.480;8.658;2022-12-17T06:55:58;1.98;;;1.25;;
54853;SDS011;40747;49.480;8.658;2022-12-17T06:58:42;22.42;;;12.50;;
54853;SDS011;40747;49.480;8.658;2022-12-17T07:01:26;25.25;;;12.93;;
54853;SDS011;40747;49.480;8.658;2022-12-17T07:04:10;28.48;;;8.63;;
54853;SDS011;40747;49.480;8.658;2022-12-17T07:06:54;32.10;;;14.23;;
54853;SDS011;40747;49.480;8.658;2022-12-17T07:09:38;19.60;;;8.90;;
54853;SDS011;40747;49.480;8.658;2022-12-17T07:12:22;23.60;;;10.88;;
54853;SDS011;40747;49.480;8.658;2022-12-17T07:15:17;30.58;;;13.93;;
54853;SDS011;40747;49.480;8.658;2022-12-17T07:18:01;36.80;;;14.98;;
54853;SDS011;40747;49.480;8.658;2022-12-17T07:20:46;12.88;;;8.88;;
54853;SDS011;40747;49.480;8.658;2022-12-17T07:23:31;35.38;;;15.77;;
54853;SDS011;40747;49.480;8.658;2022-12-17T07:26:16;12.43;;;6.82;;
54853;SDS011;40747;49.480;8.658;2022-12-17T07:29:00;6.85;;;3.75;;
54853;SDS011;40747;49.480;8.658;2022-12-17T07:31:44;3.30;;;3.10;;
54853;SDS011;40747;49.480;8.658;2022-12-17T07:34:28;8.93;;;3.50;;
54853;SDS011;40747;49.480;8.658;2022-12-17T07:37:12;2.55;;;2.08;;
54853;SDS011;40747;49.480;8.658;2022-12-17T07:39:56;50.13;;;20.63;;
54853;SDS011;40747;49.480;8.658;2022-12-17T07:42:40;28.13;;;14.07;;
54853;SDS011;40747;49.480;8.658;2022-12-17T07:45:24;35.22;;;16.10;;
54853;SDS011;40747;49.480;8.658;2022-12-17T07:48:09;39.00;;;17.33;;
54853;SDS011;40747;49.480;8.658;2022-12-17T07:50:53;37.75;;;17.50;;
54853;SDS011;40747;49.480;8.658;2022-12-17T07:53:37;42.15;;;18.15;;
54853;SDS011;40747;49.480;8.658;2022-12-17T07:56:21;39.65;;;18.13;;
54853;SDS011;40747;49.480;8.658;2022-12-17T07:59:05;46.40;;;19.13;;
54853;SDS011;40747;49.480;8.658;2022-12-17T08:01:49;47.10;;;20.48;;
54853;SDS011;40747;49.480;8.658;2022-12-17T08:04:33;45.58;;;20.83;;
54853;SDS011;40747;49.480;8.658;2022-12-17T08:07:17;43.70;;;20.25;;
54853;SDS011;40747;49.480;8.658;2022-12-17T08:10:01;42.05;;;17.58;;
54853;SDS011;40747;49.480;8.658;2022-12-17T08:15:56;44.55;;;19.73;;
54853;SDS011;40747;49.480;8.658;2022-12-17T08:18:40;42.42;;;17.35;;
54853;SDS011;40747;49.480;8.658;2022-12-17T08:21:24;18.23;;;9.32;;
54853;SDS011;40747;49.480;8.658;2022-12-17T08:24:08;11.15;;;5.78;;
54853;SDS011;40747;49.480;8.658;2022-12-17T08:26:52;5.32;;;4.90;;
54853;SDS011;40747;49.480;8.658;2022-12-17T08:29:36;4.78;;;4.32;;
54853;SDS011;40747;49.480;8.658;2022-12-17T08:32:20;3.50;;;2.40;;
54853;SDS011;40747;49.480;8.658;2022-12-17T08:35:04;44.17;;;20.67;;
54853;SDS011;40747;49.480;8.658;2022-12-17T08:38:02;40.85;;;18.65;;
54853;SDS011;40747;49.480;8.658;2022-12-17T08:40:47;45.47;;;19.75;;
54853;SDS011;40747;49.480;8.658;2022-12-17T08:43:31;51.45;;;21.08;;
54853;SDS011;40747;49.480;8.658;2022-12-17T08:46:15;95.53;;;35.50;;
54853;SDS011;40747;49.480;8.658;2022-12-17T08:49:00;98.78;;;40.92;;
54853;SDS011;40747;49.480;8.658;2022-12-17T08:51:44;62.78;;;24.23;;
54853;SDS011;40747;49.480;8.658;2022-12-17T08:54:28;56.85;;;27.00;;
54853;SDS011;40747;49.480;8.658;2022-12-17T08:57:12;28.63;;;15.07;;
54853;SDS011;40747;49.480;8.658;2022-12-17T08:59:56;21.35;;;12.73;;
54853;SDS011;40747;49.480;8.658;2022-12-17T09:02:40;41.70;;;20.50;;
54853;SDS011;40747;49.480;8.658;2022-12-17T09:05:23;35.78;;;17.20;;
54853;SDS011;40747;49.480;8.658;2022-12-17T09:08:08;11.82;;;8.95;;
54853;SDS011;40747;49.480;8.658;2022-12-17T09:10:51;22.58;;;11.98;;
54853;SDS011;40747;49.480;8.658;2022-12-17T09:13:35;8.00;;;6.93;;
54853;SDS011;40747;49.480;8.658;2022-12-17T09:16:19;37.25;;;17.55;;
54853;SDS011;40747;49.480;8.658;2022-12-17T09:19:04;18.50;;;9.75;;
54853;SDS011;40747;49.480;8.658;2022-12-17T09:21:48;8.68;;;5.88;;
54853;SDS011;40747;49.480;8.658;2022-12-17T09:24:32;7.97;;;7.35;;
54853;SDS011;40747;49.480;8.658;2022-12-17T09:27:17;3.17;;;2.97;;
54853;SDS011;40747;49.480;8.658;2022-12-17T09:30:02;6.55;;;2.53;;
54853;SDS011;40747;49.480;8.658;2022-12-17T09:32:47;34.90;;;14.23;;
54853;SDS011;40747;49.480;8.658;2022-12-17T09:35:31;53.75;;;21.67;;
54853;SDS011;40747;49.480;8.658;2022-12-17T09:38:15;49.70;;;21.23;;
54853;SDS011;40747;49.480;8.658;2022-12-17T09:41:12;62.55;;;24.58;;
54853;SDS011;40747;49.480;8.658;2022-12-17T09:47:30;47.05;;;21.70;;
54853;SDS011;40747;49.480;8.658;2022-12-17T09:50:25;59.08;;;25.58;;
54853;SDS011;40747;49.480;8.658;2022-12-17T09:53:18;58.00;;;25.20;;
54853;SDS011;40747;49.480;8.658;2022-12-17T09:56:20;29.60;;;14.13;;
54853;SDS011;40747;49.480;8.658;2022-12-17T09:59:10;80.68;;;25.92;;
54853;SDS011;40747;49.480;8.658;2022-12-17T10:02:21;44.25;;;20.27;;
54853;SDS011;40747;49.480;8.658;2022-12-17T10:05:30;42.97;;;13.80;;
54853;SDS011;40747;49.480;8.658;2022-12-17T10:08:15;20.05;;;11.00;;
54853;SDS011;40747;49.480;8.658;2022-12-17T10:11:11;26.67;;;11.98;;
54853;SDS011;40747;49.480;8.658;2022-12-17T10:14:17;15.55;;;8.40;;
54853;SDS011;40747;49.480;8.658;2022-12-17T10:17:03;10.52;;;7.50;;
54853;SDS011;40747;49.480;8.658;2022-12-17T10:19:49;17.60;;;9.35;;
54853;SDS011;40747;49.480;8.658;2022-12-17T10:22:43;13.52;;;6.05;;
54853;SDS011;40747;49.480;8.658;2022-12-17T10:25:30;2.78;;;2.67;;
54853;SDS011;40747;49.480;8.658;2022-12-17T10:28:15;14.00;;;5.25;;
54853;SDS011;40747;49.480;8.658;2022-12-17T10:31:03;62.55;;;23.05;;
54853;SDS011;40747;49.480;8.658;2022-12-17T10:33:54;78.88;;;28.50;;
54853;SDS011;40747;49.480;8.658;2022-12-17T10:36:43;72.85;;;30.15;;
54853;SDS011;40747;49.480;8.658;2022-12-17T10:39:29;48.40;;;19.35;;
54853;SDS011;40747;49.480;8.658;2022-12-17T10:42:20;71.32;;;30.63;;
54853;SDS011;40747;49.480;8.658;2022-12-17T10:45:26;78.60;;;30.63;;
54853;SDS011;40747;49.480;8.658;2022-12-17T10:48:22;68.83;;;27.83;;
54853;SDS011;40747;49.480;8.658;2022-12-17T10:51:19;58.80;;;24.13;;
54853;SDS011;40747;49.480;8.658;2022-12-17T10:57:08;61.75;;;24.08;;
54853;SDS011;40747;49.480;8.658;2022-12-17T11:00:12;75.05;;;27.90;;
54853;SDS011;40747;49.480;8.658;2022-12-17T11:03:04;83.57;;;28.67;;
54853;SDS011;40747;49.480;8.658;2022-12-17T11:05:48;79.03;;;29.48;;
54853;SDS011;40747;49.480;8.658;2022-12-17T11:08:37;23.98;;;11.73;;
54853;SDS011;40747;49.480;8.658;2022-12-17T11:11:23;29.35;;;15.10;;
54853;SDS011;40747;49.480;8.658;2022-12-17T11:14:08;28.40;;;13.75;;
54853;SDS011;40747;49.480;8.658;2022-12-17T11:16:56;58.08;;;22.95;;
54853;SDS011;40747;49.480;8.658;2022-12-17T11:19:46;69.38;;;24.80;;
54853;SDS011;40747;49.480;8.658;2022-12-17T11:22:36;23.27;;;9.98;;
54853;SDS011;40747;49.480;8.658;2022-12-17T11:25:41;71.38;;;24.27;;
54853;SDS011;40747;49.480;8.658;2022-12-17T11:28:33;17.88;;;10.65;;
54853;SDS011;40747;49.480;8.658;2022-12-17T11:34:32;29.20;;;14.20;;
54853;SDS011;40747;49.480;8.658;2022-12-17T11:37:25;11.18;;;5.32;;
54853;SDS011;40747;49.480;8.658;2022-12-17T11:40:34;13.55;;;7.72;;
54853;SDS011;40747;49.480;8.658;2022-12-17T11:47:13;7.88;;;4.72;;
54853;SDS011;40747;49.480;8.658;2022-12-17T11:50:13;65.68;;;23.63;;
54853;SDS011;40747;49.480;8.658;2022-12-17T11:53:05;95.53;;;32.08;;
54853;SDS011;40747;49.480;8.658;2022-12-17T11:56:05;64.78;;;24.25;;
54853;SDS011;40747;49.480;8.658;2022-12-17T12:05:36;43.17;;;14.60;;
54853;SDS011;40747;49.480;8.658;2022-12-17T12:08:29;51.15;;;20.63;;
54853;SDS011;40747;49.480;8.658;2022-12-17T12:26:26;39.50;;;14.85;;
54853;SDS011;40747;49.480;8.658;2022-12-17T12:29:29;30.95;;;13.88;;
54853;SDS011;40747;49.480;8.658;2022-12-17T12:35:46;52.33;;;17.67;;
54853;SDS011;40747;49.480;8.658;2022-12-17T12:38:36;35.90;;;15.73;;
54853;SDS011;40747;49.480;8.658;2022-12-17T12:41:41;22.10;;;10.85;;
54853;SDS011;40747;49.480;8.658;2022-12-17T12:47:41;7.20;;;5.45;;
54853;SDS011;40747;49.480;8.658;2022-12-17T12:50:37;28.75;;;14.07;;
54853;SDS011;40747;49.480;8.658;2022-12-17T12:53:56;16.10;;;10.05;;
54853;SDS011;40747;49.480;8.658;2022-12-17T12:56:44;29.15;;;9.23;;
54853;SDS011;40747;49.480;8.658;2022-12-17T12:59:30;17.95;;;9.25;;
54853;SDS011;40747;49.480;8.658;2022-12-17T13:05:03;22.13;;;10.95;;
54853;SDS011;40747;49.480;8.658;2022-12-17T13:08:03;24.70;;;11.50;;
54853;SDS011;40747;49.480;8.658;2022-12-17T13:10:32;14.77;;;9.90;;
54853;SDS011;40747;49.480;8.658;2022-12-17T13:13:08;66.07;;;23.25;;
54853;SDS011;40747;49.480;8.658;2022-12-17T13:15:57;52.85;;;17.17;;
54853;SDS011;40747;49.480;8.658;2022-12-17T13:18:28;50.37;;;21.60;;
54853;SDS011;40747;49.480;8.658;2022-12-17T13:20:59;36.50;;;14.77;;
54853;SDS011;40747;49.480;8.658;2022-12-17T13:23:36;59.90;;;21.42;;
54853;SDS011;40747;49.480;8.658;2022-12-17T13:26:13;89.00;;;30.35;;
54853;SDS011;40747;49.480;8.658;2022-12-17T13:28:41;69.55;;;25.08;;
54853;SDS011;40747;49.480;8.658;2022-12-17T13:31:14;107.25;;;38.05;;
54853;SDS011;40747;49.480;8.658;2022-12-17T13:39:26;37.13;;;17.88;;
54853;SDS011;40747;49.480;8.658;2022-12-17T13:41:59;61.20;;;26.40;;
54853;SDS011;40747;49.480;8.658;2022-12-17T13:44:26;37.92;;;18.45;;
54853;SDS011;40747;49.480;8.658;2022-12-17T13:46:58;87.43;;;31.75;;
54853;SDS011;40747;49.480;8.658;2022-12-17T13:49:24;86.82;;;29.67;;
54853;SDS011;40747;49.480;8.658;2022-12-17T13:52:01;32.75;;;15.60;;
54853;SDS011;40747;49.480;8.658;2022-12-17T13:54:47;48.33;;;17.08;;
54853;SDS011;40747;49.480;8.658;2022-12-17T13:57:20;27.65;;;10.98;;
54853;SDS011;40747;49.480;8.658;2022-12-17T13:59:52;43.60;;;19.42;;
54853;SDS011;40747;49.480;8.658;2022-12-17T14:02:27;72.97;;;26.85;;
54853;SDS011;40747;49.480;8.658;2022-12-17T14:05:02;33.30;;;15.35;;
54853;SDS011;40747;49.480;8.658;2022-12-17T14:07:29;27.50;;;13.43;;
54853;SDS011;40747;49.480;8.658;2022-12-17T14:09:58;41.65;;;15.75;;
54853;SDS011;40747;49.480;8.658;2022-12-17T14:12:24;65.88;;;25.92;;
54853;SDS011;40747;49.480;8.658;2022-12-17T14:14:52;42.92;;;18.45;;
54853;SDS011;40747;49.480;8.658;2022-12-17T14:17:27;66.70;;;23.73;;
54853;SDS011;40747;49.480;8.658;2022-12-17T14:20:12;26.20;;;13.35;;
54853;SDS011;40747;49.480;8.658;2022-12-17T14:22:41;20.85;;;11.57;;
54853;SDS011;40747;49.480;8.658;2022-12-17T14:25:13;34.78;;;14.88;;
54853;SDS011;40747;49.480;8.658;2022-12-17T14:27:41;13.85;;;9.05;;
54853;SDS011;40747;49.480;8.658;2022-12-17T14:30:45;17.88;;;12.38;;
54853;SDS011;40747;49.480;8.658;2022-12-17T14:35:58;11.43;;;9.60;;
54853;SDS011;40747;49.480;8.658;2022-12-17T14:38:26;5.90;;;5.10;;
54853;SDS011;40747;49.480;8.658;2022-12-17T14:40:52;3.38;;;3.10;;
54853;SDS011;40747;49.480;8.658;2022-12-17T14:43:22;8.43;;;7.57;;
54853;SDS011;40747;49.480;8.658;2022-12-17T14:45:54;71.50;;;27.13;;
54853;SDS011;40747;49.480;8.658;2022-12-17T14:48:42;85.93;;;31.77;;
54853;SDS011;40747;49.480;8.658;2022-12-17T14:51:39;95.60;;;33.08;;
54853;SDS011;40747;49.480;8.658;2022-12-17T14:56:47;99.97;;;34.97;;
54853;SDS011;40747;49.480;8.658;2022-12-17T15:04:33;77.07;;;28.85;;
54853;SDS011;40747;49.480;8.658;2022-12-17T15:07:00;82.50;;;29.42;;
54853;SDS011;40747;49.480;8.658;2022-12-17T15:09:26;70.97;;;25.95;;
54853;SDS011;40747;49.480;8.658;2022-12-17T15:11:51;97.88;;;31.35;;
54853;SDS011;40747;49.480;8.658;2022-12-17T15:14:16;89.88;;;31.38;;
54853;SDS011;40747;49.480;8.658;2022-12-17T15:16:41;58.72;;;20.33;;
54853;SDS011;40747;49.480;8.658;2022-12-17T15:19:07;73.85;;;26.42;;
54853;SDS011;40747;49.480;8.658;2022-12-17T15:21:32;63.03;;;26.05;;
54853;SDS011;40747;49.480;8.658;2022-12-17T15:23:57;80.18;;;27.00;;
54853;SDS011;40747;49.480;8.658;2022-12-17T15:26:23;73.93;;;25.75;;
54853;SDS011;40747;49.480;8.658;2022-12-17T15:28:49;13.48;;;8.00;;
54853;SDS011;40747;49.480;8.658;2022-12-17T15:31:14;23.38;;;15.27;;
54853;SDS011;40747;49.480;8.658;2022-12-17T15:33:40;50.92;;;20.38;;
54853;SDS011;40747;49.480;8.658;2022-12-17T15:36:06;34.90;;;14.95;;
54853;SDS011;40747;49.480;8.658;2022-12-17T15:38:33;45.33;;;19.55;;
54853;SDS011;40747;49.480;8.658;2022-12-17T15:41:00;53.80;;;23.02;;
54853;SDS011;40747;49.480;8.658;2022-12-17T15:43:47;61.65;;;22.77;;
54853;SDS011;40747;49.480;8.658;2022-12-17T15:46:13;47.40;;;22.08;;
54853;SDS011;40747;49.480;8.658;2022-12-17T15:48:38;32.42;;;18.15;;
54853;SDS011;40747;49.480;8.658;2022-12-17T15:51:04;40.08;;;16.88;;
54853;SDS011;40747;49.480;8.658;2022-12-17T15:53:29;67.93;;;25.52;;
54853;SDS011;40747;49.480;8.658;2022-12-17T15:55:58;60.85;;;22.73;;
54853;SDS011;40747;49.480;8.658;2022-12-17T15:58:25;53.05;;;23.33;;
54853;SDS011;40747;49.480;8.658;2022-12-17T16:00:50;35.22;;;17.63;;
54853;SDS011;40747;49.480;8.658;2022-12-17T16:03:16;41.90;;;19.60;;
54853;SDS011;40747;49.480;8.658;2022-12-17T16:05:41;32.28;;;18.95;;
54853;SDS011;40747;49.480;8.658;2022-12-17T16:08:06;23.40;;;8.30;;
54853;SDS011;40747;49.480;8.658;2022-12-17T16:10:31;11.98;;;8.85;;
54853;SDS011;40747;49.480;8.658;2022-12-17T16:12:58;78.25;;;31.30;;
54853;SDS011;40747;49.480;8.658;2022-12-17T16:15:24;18.17;;;11.82;;
54853;SDS011;40747;49.480;8.658;2022-12-17T16:17:49;45.40;;;19.67;;
54853;SDS011;40747;49.480;8.658;2022-12-17T16:20:14;83.82;;;31.25;;
54853;SDS011;40747;49.480;8.658;2022-12-17T16:22:40;59.85;;;24.75;;
54853;SDS011;40747;49.480;8.658;2022-12-17T16:25:05;38.63;;;17.83;;
54853;SDS011;40747;49.480;8.658;2022-12-17T16:27:31;39.65;;;15.90;;
54853;SDS011;40747;49.480;8.658;2022-12-17T16:29:56;59.60;;;19.63;;
54853;SDS011;40747;49.480;8.658;2022-12-17T16:32:21;72.15;;;28.40;;
54853;SDS011;40747;49.480;8.658;2022-12-17T16:34:47;69.43;;;28.23;;
54853;SDS011;40747;49.480;8.658;2022-12-17T16:37:12;55.17;;;21.83;;
54853;SDS011;40747;49.480;8.658;2022-12-17T16:39:37;21.38;;;13.07;;
54853;SDS011;40747;49.480;8.658;2022-12-17T16:42:03;79.63;;;30.83;;
54853;SDS011;40747;49.480;8.658;2022-12-17T16:44:28;118.57;;;39.03;;
54853;SDS011;40747;49.480;8.658;2022-12-17T16:46:53;90.13;;;31.90;;
54853;SDS011;40747;49.480;8.658;2022-12-17T16:49:19;95.13;;;33.50;;
54853;SDS011;40747;49.480;8.658;2022-12-17T16:51:47;63.47;;;26.30;;
54853;SDS011;40747;49.480;8.658;2022-12-17T16:54:15;71.15;;;30.33;;
54853;SDS011;40747;49.480;8.658;2022-12-17T16:56:42;32.88;;;16.92;;
54853;SDS011;40747;49.480;8.658;2022-12-17T16:59:09;46.58;;;21.00;;
54853;SDS011;40747;49.480;8.658;2022-12-17T17:01:35;20.77;;;10.32;;
54853;SDS011;40747;49.480;8.658;2022-12-17T17:04:02;27.75;;;16.42;;
54853;SDS011;40747;49.480;8.658;2022-12-17T17:06:29;13.07;;;9.40;;
54853;SDS011;40747;49.480;8.658;2022-12-17T17:08:54;43.78;;;17.45;;
54853;SDS011;40747;49.480;8.658;2022-12-17T17:11:21;9.98;;;9.13;;
54853;SDS011;40747;49.480;8.658;2022-12-17T17:13:48;37.30;;;12.50;;